Time;durP1;ratioP1;P1;durP2;ratioP2;P2;SDS_P1;SDS_P2;PMS_P1;PMS_P2;Temp;Humidity;BMP_temperature;BMP_pressure;BME280_temperature;BME280_humidity;BME280_pressure;Samples;Min_cycle;Max_cycle;Signal;HPM_P1;HPM_P2
2021/06/06 00:01:04;;;;;;;12.98;8.98;;;;;;;;;;1474577;40;20505;-86
2021/06/06 00:02:06;;;;;;;12.60;8.00;;;;;;;;;;1480752;40;20547;-86
2021/06/06 00:03:18;;;;;;;12.20;8.32;;;;;;;;;;1485354;40;20506;-86
2021/06/06 00:04:23;;;;;;;13.43;8.17;;;;;;;;;;1482364;40;20535;-85
2021/06/06 00:05:53;;;;;;;11.90;7.67;;;;;;;;;;1481142;40;20535;-86
2021/06/06 00:06:56;;;;;;;9.35;7.90;;;;;;;;;;1476122;40;20400;-86
2021/06/06 00:07:57;;;;;;;14.13;7.95;;;;;;;;;;1471889;40;20429;-86
2021/06/06 00:09:01;;;;;;;11.63;8.05;;;;;;;;;;1472020;40;20428;-84
2021/06/06 00:10:04;;;;;;;13.52;7.95;;;;;;;;;;1472340;40;20435;-86
2021/06/06 00:11:11;;;;;;;12.40;7.97;;;;;;;;;;1476855;40;20520;-86
2021/06/06 00:12:12;;;;;;;13.85;8.30;;;;;;;;;;1484821;40;20534;-85
2021/06/06 00:13:16;;;;;;;11.18;8.25;;;;;;;;;;1483552;40;20415;-86
2021/06/06 00:14:21;;;;;;;12.40;8.57;;;;;;;;;;1482489;40;20480;-86
2021/06/06 00:15:26;;;;;;;13.02;8.60;;;;;;;;;;1487867;40;20419;-86
2021/06/06 00:16:32;;;;;;;14.18;9.50;;;;;;;;;;1476809;40;20976;-84
2021/06/06 00:17:34;;;;;;;11.02;9.20;;;;;;;;;;1478944;40;20476;-85
2021/06/06 00:18:36;;;;;;;11.90;9.63;;;;;;;;;;1483131;40;20450;-86
2021/06/06 00:19:39;;;;;;;13.07;9.10;;;;;;;;;;1475376;40;20489;-88
2021/06/06 00:20:41;;;;;;;11.70;9.60;;;;;;;;;;1476910;40;20415;-88
2021/06/06 00:21:44;;;;;;;11.55;9.35;;;;;;;;;;1480741;40;20776;-87
2021/06/06 00:22:46;;;;;;;13.33;9.93;;;;;;;;;;1481507;40;20523;-87
2021/06/06 00:23:47;;;;;;;13.60;9.98;;;;;;;;;;1480819;40;20532;-87
2021/06/06 00:24:49;;;;;;;13.53;9.50;;;;;;;;;;1474598;40;20535;-86
2021/06/06 00:25:51;;;;;;;13.07;10.50;;;;;;;;;;1474628;40;20413;-86
2021/06/06 00:26:53;;;;;;;13.90;8.95;;;;;;;;;;1478540;40;20487;-87
2021/06/06 00:27:54;;;;;;;12.45;10.07;;;;;;;;;;1475983;40;20447;-87
2021/06/06 00:28:56;;;;;;;11.48;9.73;;;;;;;;;;1471486;40;20430;-87
2021/06/06 00:30:00;;;;;;;13.68;9.63;;;;;;;;;;1475183;40;20514;-87
2021/06/06 00:31:06;;;;;;;13.10;10.07;;;;;;;;;;1475735;40;20820;-87
2021/06/06 00:32:08;;;;;;;12.70;9.50;;;;;;;;;;1478838;40;20421;-87
2021/06/06 00:33:10;;;;;;;10.45;9.10;;;;;;;;;;1478551;40;20473;-87
2021/06/06 00:34:12;;;;;;;13.27;9.63;;;;;;;;;;1478357;40;20454;-87
2021/06/06 00:35:14;;;;;;;14.93;9.50;;;;;;;;;;1478306;40;20988;-87
2021/06/06 00:36:18;;;;;;;12.25;8.85;;;;;;;;;;1477697;40;20413;-87
2021/06/06 00:37:20;;;;;;;14.18;9.52;;;;;;;;;;1470593;40;20527;-86
2021/06/06 00:38:21;;;;;;;11.25;9.77;;;;;;;;;;1470508;40;20402;-87
2021/06/06 00:39:23;;;;;;;13.10;9.40;;;;;;;;;;1470341;40;20783;-86
2021/06/06 00:40:28;;;;;;;11.40;9.30;;;;;;;;;;1478135;40;20807;-87
2021/06/06 00:41:31;;;;;;;12.73;9.80;;;;;;;;;;1473854;40;20400;-87
2021/06/06 00:42:33;;;;;;;16.15;10.35;;;;;;;;;;1478821;40;20442;-87
2021/06/06 00:43:35;;;;;;;13.60;9.57;;;;;;;;;;1469730;40;20409;-87
2021/06/06 00:44:37;;;;;;;12.82;10.82;;;;;;;;;;1474377;40;20412;-87
2021/06/06 00:45:39;;;;;;;11.20;8.73;;;;;;;;;;1473943;40;20468;-87
2021/06/06 00:46:41;;;;;;;13.02;9.68;;;;;;;;;;1474222;40;20404;-87
2021/06/06 00:47:44;;;;;;;10.23;9.05;;;;;;;;;;1479140;40;20438;-87
2021/06/06 00:48:45;;;;;;;11.10;9.00;;;;;;;;;;1479012;40;20499;-87
2021/06/06 00:49:47;;;;;;;13.35;9.52;;;;;;;;;;1474917;40;20420;-87
2021/06/06 00:50:56;;;;;;;14.30;10.48;;;;;;;;;;1478568;40;20407;-87
2021/06/06 00:51:58;;;;;;;11.57;9.65;;;;;;;;;;1477751;40;20774;-87
2021/06/06 00:53:04;;;;;;;16.30;9.68;;;;;;;;;;1474598;40;20499;-88
2021/06/06 00:54:12;;;;;;;12.95;9.20;;;;;;;;;;1477488;40;21272;-89
2021/06/06 00:55:14;;;;;;;11.25;9.43;;;;;;;;;;1474691;40;20516;-87
2021/06/06 00:56:20;;;;;;;11.52;9.35;;;;;;;;;;1475644;40;20418;-88
2021/06/06 00:57:26;;;;;;;14.93;9.43;;;;;;;;;;1478981;40;20403;-88
2021/06/06 00:58:29;;;;;;;11.70;8.55;;;;;;;;;;1482258;40;20464;-87
2021/06/06 00:59:33;;;;;;;11.90;9.35;;;;;;;;;;1479149;40;20398;-88
2021/06/06 01:00:49;;;;;;;10.23;8.88;;;;;;;;;;1478170;40;20418;-87
2021/06/06 01:01:52;;;;;;;12.23;9.75;;;;;;;;;;1474620;40;20415;-87
2021/06/06 01:02:55;;;;;;;13.03;9.60;;;;;;;;;;1474746;40;20400;-86
2021/06/06 01:03:59;;;;;;;13.50;9.38;;;;;;;;;;1475469;40;20883;-86
2021/06/06 01:05:00;;;;;;;10.18;9.07;;;;;;;;;;1478276;40;20418;-85
2021/06/06 01:06:15;;;;;;;11.33;9.97;;;;;;;;;;1473775;40;20478;-85
2021/06/06 01:07:17;;;;;;;13.07;9.75;;;;;;;;;;1475340;40;20482;-85
2021/06/06 01:08:20;;;;;;;13.38;9.20;;;;;;;;;;1477355;40;20478;-86
2021/06/06 01:09:24;;;;;;;11.38;9.68;;;;;;;;;;1478267;40;20935;-86
2021/06/06 01:10:25;;;;;;;12.25;9.95;;;;;;;;;;1471583;40;20437;-85
2021/06/06 01:11:48;;;;;;;11.57;10.02;;;;;;;;;;1466096;40;20466;-86
2021/06/06 01:12:59;;;;;;;12.23;9.80;;;;;;;;;;1474680;40;20405;-87
2021/06/06 01:14:06;;;;;;;13.30;10.10;;;;;;;;;;1478162;40;20404;-87
2021/06/06 01:15:16;;;;;;;12.05;9.45;;;;;;;;;;1483272;40;20441;-87
2021/06/06 01:17:02;;;;;;;13.77;9.43;;;;;;;;;;1482202;40;20412;-87
2021/06/06 01:18:21;;;;;;;12.65;9.55;;;;;;;;;;1468044;40;20434;-86
2021/06/06 01:19:32;;;;;;;11.38;9.40;;;;;;;;;;1474403;40;20767;-86
2021/06/06 01:20:58;;;;;;;13.05;9.75;;;;;;;;;;1473779;40;20482;-87
2021/06/06 01:22:27;;;;;;;15.13;9.65;;;;;;;;;;1473848;40;20392;-87
2021/06/06 01:23:47;;;;;;;11.20;8.52;;;;;;;;;;1474496;40;20459;-87
2021/06/06 01:25:18;;;;;;;9.95;8.95;;;;;;;;;;1478141;40;20400;-86
2021/06/06 01:26:29;;;;;;;10.05;9.07;;;;;;;;;;1478540;40;20420;-86
2021/06/06 01:27:36;;;;;;;9.85;8.85;;;;;;;;;;1485101;40;20394;-85
2021/06/06 01:28:44;;;;;;;12.75;9.55;;;;;;;;;;1491829;39;20453;-86
2021/06/06 01:30:10;;;;;;;12.77;8.98;;;;;;;;;;1488743;40;20421;-86
2021/06/06 01:31:14;;;;;;;11.93;8.52;;;;;;;;;;1491376;39;20407;-86
2021/06/06 01:32:25;;;;;;;11.57;9.38;;;;;;;;;;1488772;39;20393;-86
2021/06/06 01:33:43;;;;;;;10.55;9.02;;;;;;;;;;1485557;40;20432;-87
2021/06/06 01:34:56;;;;;;;11.20;9.00;;;;;;;;;;1484278;40;20397;-87
2021/06/06 01:36:04;;;;;;;11.52;8.80;;;;;;;;;;1484048;40;20413;-86
2021/06/06 01:37:11;;;;;;;10.02;8.73;;;;;;;;;;1483516;40;20394;-87
2021/06/06 01:38:21;;;;;;;12.35;9.52;;;;;;;;;;1478757;40;20468;-87
2021/06/06 01:39:26;;;;;;;14.25;9.35;;;;;;;;;;1482289;40;20479;-87
2021/06/06 01:40:33;;;;;;;12.70;9.20;;;;;;;;;;1483041;40;20400;-87
2021/06/06 01:41:40;;;;;;;10.75;9.48;;;;;;;;;;1482799;40;20416;-87
2021/06/06 01:42:47;;;;;;;12.15;9.27;;;;;;;;;;1480661;40;20784;-86
2021/06/06 01:43:52;;;;;;;10.68;8.70;;;;;;;;;;1479255;40;20492;-86
2021/06/06 01:44:59;;;;;;;13.85;9.80;;;;;;;;;;1487150;40;20507;-86
2021/06/06 01:46:05;;;;;;;12.82;9.13;;;;;;;;;;1479684;40;20531;-86
2021/06/06 01:47:14;;;;;;;15.02;9.38;;;;;;;;;;1477896;40;20581;-86
2021/06/06 01:48:16;;;;;;;14.75;9.82;;;;;;;;;;1480148;40;20401;-87
2021/06/06 01:49:19;;;;;;;12.38;9.88;;;;;;;;;;1478403;40;20422;-86
2021/06/06 01:50:29;;;;;;;15.15;10.40;;;;;;;;;;1478347;40;20472;-86
2021/06/06 01:51:36;;;;;;;10.70;9.65;;;;;;;;;;1478180;40;20411;-86
2021/06/06 01:52:40;;;;;;;16.35;10.23;;;;;;;;;;1478726;40;20401;-86
2021/06/06 01:53:44;;;;;;;13.88;10.50;;;;;;;;;;1481952;40;20752;-87
2021/06/06 01:54:48;;;;;;;14.65;9.50;;;;;;;;;;1482851;40;20494;-86
2021/06/06 01:55:54;;;;;;;11.25;10.10;;;;;;;;;;1473612;40;20848;-87
2021/06/06 01:56:57;;;;;;;12.80;9.83;;;;;;;;;;1475730;40;20505;-87
2021/06/06 01:58:03;;;;;;;14.73;10.27;;;;;;;;;;1480441;40;20462;-87
2021/06/06 01:59:09;;;;;;;15.20;10.13;;;;;;;;;;1477469;40;20433;-87
2021/06/06 02:00:17;;;;;;;12.48;10.30;;;;;;;;;;1474172;40;20432;-87
2021/06/06 02:01:21;;;;;;;14.98;9.43;;;;;;;;;;1478621;40;20430;-85
2021/06/06 02:02:23;;;;;;;12.23;10.40;;;;;;;;;;1477731;40;20414;-87
2021/06/06 02:03:25;;;;;;;15.88;10.23;;;;;;;;;;1481186;40;20400;-87
2021/06/06 02:04:28;;;;;;;12.73;10.63;;;;;;;;;;1482212;40;20666;-86
2021/06/06 02:05:30;;;;;;;11.52;10.32;;;;;;;;;;1482086;40;20694;-87
2021/06/06 02:06:54;;;;;;;11.25;9.98;;;;;;;;;;1473393;40;20949;-86
2021/06/06 02:07:58;;;;;;;13.70;10.35;;;;;;;;;;1475593;40;20685;-86
2021/06/06 02:09:06;;;;;;;13.88;11.40;;;;;;;;;;1474081;40;20744;-87
2021/06/06 02:10:23;;;;;;;14.90;10.63;;;;;;;;;;1477624;40;20567;-88
2021/06/06 02:11:29;;;;;;;12.32;9.65;;;;;;;;;;1476453;40;20438;-87
2021/06/06 02:12:32;;;;;;;12.95;9.98;;;;;;;;;;1479717;40;20422;-86
2021/06/06 02:13:45;;;;;;;13.90;9.90;;;;;;;;;;1481191;40;20405;-87
2021/06/06 02:14:49;;;;;;;10.77;9.38;;;;;;;;;;1476186;40;20462;-86
2021/06/06 02:15:55;;;;;;;14.10;10.50;;;;;;;;;;1477917;40;20426;-86
2021/06/06 02:16:59;;;;;;;15.32;10.30;;;;;;;;;;1478490;40;20439;-87
2021/06/06 02:18:02;;;;;;;12.57;9.73;;;;;;;;;;1479464;40;20414;-86
2021/06/06 02:19:06;;;;;;;13.00;10.63;;;;;;;;;;1482365;40;20412;-85
2021/06/06 02:20:09;;;;;;;11.75;9.85;;;;;;;;;;1478231;40;20438;-86
2021/06/06 02:21:12;;;;;;;14.80;10.38;;;;;;;;;;1474252;40;20420;-86
2021/06/06 02:22:16;;;;;;;12.48;10.50;;;;;;;;;;1482590;40;20444;-86
2021/06/06 02:23:22;;;;;;;13.43;9.85;;;;;;;;;;1482042;40;20774;-86
2021/06/06 02:24:24;;;;;;;13.02;9.52;;;;;;;;;;1478252;40;20434;-85
2021/06/06 02:25:27;;;;;;;11.45;10.15;;;;;;;;;;1474374;40;20471;-86
2021/06/06 02:26:35;;;;;;;13.95;10.00;;;;;;;;;;1470260;40;20536;-86
2021/06/06 02:28:08;;;;;;;10.88;9.57;;;;;;;;;;1476635;40;20531;-86
2021/06/06 02:29:21;;;;;;;11.87;9.93;;;;;;;;;;1485777;40;20401;-86
2021/06/06 02:30:46;;;;;;;13.23;10.32;;;;;;;;;;1479090;40;20473;-85
2021/06/06 02:32:04;;;;;;;12.35;10.10;;;;;;;;;;1478641;40;20641;-86
2021/06/06 02:33:24;;;;;;;11.90;9.32;;;;;;;;;;1476340;40;20417;-85
2021/06/06 02:34:50;;;;;;;12.80;9.80;;;;;;;;;;1477950;40;20442;-86
2021/06/06 02:35:55;;;;;;;13.55;9.07;;;;;;;;;;1478736;40;20402;-86
2021/06/06 02:37:04;;;;;;;14.77;10.13;;;;;;;;;;1481670;40;20774;-85
2021/06/06 02:38:28;;;;;;;11.98;9.63;;;;;;;;;;1478641;40;20414;-86
2021/06/06 02:39:37;;;;;;;11.93;9.40;;;;;;;;;;1474618;40;20809;-85
2021/06/06 02:40:45;;;;;;;11.27;10.13;;;;;;;;;;1474134;40;20404;-86
2021/06/06 02:41:49;;;;;;;12.57;9.23;;;;;;;;;;1476032;40;20447;-87
2021/06/06 02:42:54;;;;;;;10.77;9.05;;;;;;;;;;1480786;40;20694;-86
2021/06/06 02:44:07;;;;;;;14.90;9.80;;;;;;;;;;1479873;40;20426;-85
2021/06/06 02:45:29;;;;;;;15.43;9.77;;;;;;;;;;1479549;40;20503;-85
2021/06/06 02:46:33;;;;;;;9.10;8.20;;;;;;;;;;1475978;40;20483;-85
2021/06/06 02:47:37;;;;;;;15.25;9.27;;;;;;;;;;1478344;40;20410;-85
2021/06/06 02:48:43;;;;;;;12.50;9.43;;;;;;;;;;1478095;40;20413;-85
2021/06/06 02:49:45;;;;;;;11.93;9.35;;;;;;;;;;1481438;40;20398;-85
2021/06/06 02:50:49;;;;;;;11.75;9.43;;;;;;;;;;1481766;40;20799;-86
2021/06/06 02:52:00;;;;;;;15.38;10.63;;;;;;;;;;1482534;40;20497;-87
2021/06/06 02:53:30;;;;;;;14.40;9.63;;;;;;;;;;1479037;40;20391;-86
2021/06/06 02:54:46;;;;;;;9.95;8.82;;;;;;;;;;1479480;40;20521;-86
2021/06/06 02:55:50;;;;;;;12.35;8.85;;;;;;;;;;1479845;40;20406;-87
2021/06/06 02:56:56;;;;;;;11.85;8.93;;;;;;;;;;1479287;40;20422;-86
2021/06/06 02:58:04;;;;;;;9.68;8.48;;;;;;;;;;1478940;40;20412;-87
2021/06/06 02:59:21;;;;;;;12.75;9.00;;;;;;;;;;1476445;40;20415;-86
2021/06/06 03:00:33;;;;;;;11.07;9.02;;;;;;;;;;1477703;40;20390;-86
2021/06/06 03:01:37;;;;;;;12.05;8.60;;;;;;;;;;1480732;40;21188;-87
2021/06/06 03:02:43;;;;;;;11.13;8.85;;;;;;;;;;1477693;40;21032;-88
2021/06/06 03:03:47;;;;;;;9.15;7.65;;;;;;;;;;1474430;40;20508;-87
2021/06/06 03:04:52;;;;;;;10.85;8.52;;;;;;;;;;1470968;40;20715;-88
2021/06/06 03:05:57;;;;;;;11.02;7.32;;;;;;;;;;1474740;40;20432;-87
2021/06/06 03:07:00;;;;;;;11.43;7.57;;;;;;;;;;1474289;40;20414;-87
2021/06/06 03:08:05;;;;;;;8.18;7.38;;;;;;;;;;1474060;40;20411;-87
2021/06/06 03:09:09;;;;;;;9.38;7.18;;;;;;;;;;1476639;40;20821;-87
2021/06/06 03:10:13;;;;;;;9.15;7.13;;;;;;;;;;1477326;40;20430;-87
2021/06/06 03:11:16;;;;;;;8.93;7.22;;;;;;;;;;1470379;40;20520;-87
2021/06/06 03:12:20;;;;;;;7.88;6.80;;;;;;;;;;1475973;40;20410;-86
2021/06/06 03:13:27;;;;;;;8.73;6.50;;;;;;;;;;1474759;40;20404;-87
2021/06/06 03:14:31;;;;;;;8.18;6.03;;;;;;;;;;1474353;40;20784;-86
2021/06/06 03:15:35;;;;;;;6.97;5.88;;;;;;;;;;1470691;40;20795;-87
2021/06/06 03:16:39;;;;;;;7.93;5.97;;;;;;;;;;1474261;40;20558;-87
2021/06/06 03:17:45;;;;;;;10.57;6.27;;;;;;;;;;1474019;40;20520;-87
2021/06/06 03:18:49;;;;;;;10.40;6.35;;;;;;;;;;1477946;40;20476;-87
2021/06/06 03:19:54;;;;;;;6.72;5.88;;;;;;;;;;1474704;40;20630;-87
2021/06/06 03:21:25;;;;;;;9.57;5.53;;;;;;;;;;1474930;40;20935;-87
2021/06/06 03:22:34;;;;;;;6.32;5.72;;;;;;;;;;1469999;40;20819;-87
2021/06/06 03:23:37;;;;;;;8.05;5.88;;;;;;;;;;1472322;40;20431;-87
2021/06/06 03:24:46;;;;;;;6.40;5.78;;;;;;;;;;1474566;40;20521;-87
2021/06/06 03:25:58;;;;;;;8.13;5.57;;;;;;;;;;1474890;40;20554;-88
2021/06/06 03:27:03;;;;;;;7.32;6.63;;;;;;;;;;1478889;40;20608;-86
2021/06/06 03:28:06;;;;;;;8.63;6.47;;;;;;;;;;1475419;40;20825;-87
2021/06/06 03:29:10;;;;;;;6.82;6.10;;;;;;;;;;1476664;40;20787;-87
2021/06/06 03:30:51;;;;;;;8.50;5.47;;;;;;;;;;1478239;40;20430;-87
2021/06/06 03:32:04;;;;;;;5.90;5.30;;;;;;;;;;1453044;40;20766;-87
2021/06/06 03:33:11;;;;;;;7.53;5.03;;;;;;;;;;1455284;40;20447;-88
2021/06/06 03:34:13;;;;;;;6.05;4.65;;;;;;;;;;1457664;40;20462;-88
2021/06/06 03:35:14;;;;;;;6.57;4.85;;;;;;;;;;1457954;40;20491;-88
2021/06/06 03:36:26;;;;;;;7.03;4.95;;;;;;;;;;1457848;40;20520;-88
2021/06/06 03:37:28;;;;;;;7.20;4.47;;;;;;;;;;1462854;40;20417;-88
2021/06/06 03:38:30;;;;;;;5.20;4.55;;;;;;;;;;1470424;40;20423;-86
2021/06/06 03:39:32;;;;;;;5.50;4.55;;;;;;;;;;1470026;40;20417;-88
2021/06/06 03:40:39;;;;;;;4.53;4.05;;;;;;;;;;1470142;40;20487;-88
2021/06/06 03:41:43;;;;;;;8.00;5.13;;;;;;;;;;1471215;40;20490;-88
2021/06/06 03:42:44;;;;;;;5.30;4.25;;;;;;;;;;1475873;40;20416;-87
2021/06/06 03:43:46;;;;;;;5.80;4.43;;;;;;;;;;1474774;40;20554;-88
2021/06/06 03:44:48;;;;;;;8.43;4.40;;;;;;;;;;1479120;40;20785;-87
2021/06/06 03:45:50;;;;;;;7.30;4.30;;;;;;;;;;1478652;40;20506;-86
2021/06/06 03:46:53;;;;;;;6.57;4.15;;;;;;;;;;1474074;40;20816;-86
2021/06/06 03:47:56;;;;;;;4.95;4.50;;;;;;;;;;1470324;40;20401;-86
2021/06/06 03:48:58;;;;;;;5.00;4.13;;;;;;;;;;1470043;40;20468;-87
2021/06/06 03:50:00;;;;;;;4.72;4.28;;;;;;;;;;1470379;40;20533;-87
2021/06/06 03:51:03;;;;;;;5.80;4.45;;;;;;;;;;1465652;40;20493;-87
2021/06/06 03:52:06;;;;;;;5.13;4.63;;;;;;;;;;1462638;40;20457;-85
2021/06/06 03:53:08;;;;;;;5.70;4.25;;;;;;;;;;1470270;40;20918;-86
2021/06/06 03:54:11;;;;;;;4.45;3.92;;;;;;;;;;1470429;40;20500;-87
2021/06/06 03:55:15;;;;;;;6.00;4.07;;;;;;;;;;1474682;40;20517;-86
2021/06/06 03:56:16;;;;;;;5.07;3.90;;;;;;;;;;1477139;40;20512;-88
2021/06/06 03:57:18;;;;;;;4.55;3.65;;;;;;;;;;1470749;40;20426;-87
2021/06/06 03:58:20;;;;;;;5.80;4.43;;;;;;;;;;1474547;40;20479;-86
2021/06/06 03:59:23;;;;;;;6.97;4.63;;;;;;;;;;1477064;40;20405;-86
2021/06/06 04:00:36;;;;;;;4.82;4.30;;;;;;;;;;1476057;40;20472;-86
2021/06/06 04:01:42;;;;;;;4.20;3.80;;;;;;;;;;1480258;40;20420;-87
2021/06/06 04:02:44;;;;;;;8.43;4.25;;;;;;;;;;1479922;40;20466;-87
2021/06/06 04:03:47;;;;;;;5.70;4.40;;;;;;;;;;1482944;40;20409;-86
2021/06/06 04:04:48;;;;;;;7.28;4.38;;;;;;;;;;1484305;40;20429;-86
2021/06/06 04:05:50;;;;;;;4.78;4.35;;;;;;;;;;1476927;40;20497;-85
2021/06/06 04:06:52;;;;;;;6.22;4.13;;;;;;;;;;1472386;40;20418;-86
2021/06/06 04:07:54;;;;;;;4.40;3.90;;;;;;;;;;1471623;40;20439;-86
2021/06/06 04:08:57;;;;;;;5.95;4.38;;;;;;;;;;1471091;40;20413;-86
2021/06/06 04:10:00;;;;;;;5.43;4.15;;;;;;;;;;1470408;40;20803;-86
2021/06/06 04:11:02;;;;;;;6.68;4.30;;;;;;;;;;1463395;40;20412;-86
2021/06/06 04:12:04;;;;;;;5.22;3.90;;;;;;;;;;1472038;40;20450;-87
2021/06/06 04:13:06;;;;;;;5.80;4.10;;;;;;;;;;1478384;40;20426;-86
2021/06/06 04:14:08;;;;;;;4.68;4.10;;;;;;;;;;1480239;40;20415;-85
2021/06/06 04:15:11;;;;;;;7.15;4.22;;;;;;;;;;1483420;40;20494;-85
2021/06/06 04:16:13;;;;;;;5.38;4.10;;;;;;;;;;1479753;40;20420;-86
2021/06/06 04:17:16;;;;;;;7.80;3.58;;;;;;;;;;1478688;40;20448;-86
2021/06/06 04:18:21;;;;;;;4.28;2.95;;;;;;;;;;1482495;40;20402;-87
2021/06/06 04:19:23;;;;;;;9.63;4.13;;;;;;;;;;1478287;40;20420;-88
2021/06/06 04:20:26;;;;;;;3.88;3.45;;;;;;;;;;1477522;40;20471;-85
2021/06/06 04:21:30;;;;;;;3.83;3.53;;;;;;;;;;1476541;40;20487;-86
2021/06/06 04:22:32;;;;;;;5.32;3.63;;;;;;;;;;1476026;40;20416;-86
2021/06/06 04:23:35;;;;;;;4.95;3.30;;;;;;;;;;1475762;40;20419;-86
2021/06/06 04:24:37;;;;;;;4.63;3.25;;;;;;;;;;1475874;40;20408;-86
2021/06/06 04:25:40;;;;;;;6.85;4.35;;;;;;;;;;1479993;40;20414;-87
2021/06/06 04:26:41;;;;;;;4.43;3.43;;;;;;;;;;1479672;40;20842;-87
2021/06/06 04:27:43;;;;;;;7.20;3.63;;;;;;;;;;1472646;40;20411;-86
2021/06/06 04:28:45;;;;;;;5.03;4.05;;;;;;;;;;1471487;40;20485;-86
2021/06/06 04:29:47;;;;;;;4.82;3.60;;;;;;;;;;1475080;40;20455;-88
2021/06/06 04:30:49;;;;;;;5.50;3.28;;;;;;;;;;1478330;40;20703;-87
2021/06/06 04:31:51;;;;;;;5.20;3.50;;;;;;;;;;1475116;40;20416;-87
2021/06/06 04:32:53;;;;;;;4.37;2.83;;;;;;;;;;1470953;40;21172;-87
2021/06/06 04:33:55;;;;;;;4.90;2.80;;;;;;;;;;1466426;40;20427;-87
2021/06/06 04:34:57;;;;;;;3.08;2.78;;;;;;;;;;1466206;40;20407;-86
2021/06/06 04:35:58;;;;;;;5.70;3.80;;;;;;;;;;1462395;40;20440;-87
2021/06/06 04:37:00;;;;;;;4.72;2.95;;;;;;;;;;1458194;40;20844;-87
2021/06/06 04:38:02;;;;;;;5.22;3.30;;;;;;;;;;1462230;40;20449;-87
2021/06/06 04:39:05;;;;;;;4.00;2.88;;;;;;;;;;1464565;40;20519;-87
2021/06/06 04:40:09;;;;;;;3.55;2.65;;;;;;;;;;1462141;40;20436;-87
2021/06/06 04:41:13;;;;;;;5.97;3.08;;;;;;;;;;1465908;40;20481;-87
2021/06/06 04:42:18;;;;;;;4.50;2.80;;;;;;;;;;1476089;40;20410;-87
2021/06/06 04:43:20;;;;;;;5.55;2.33;;;;;;;;;;1475143;40;20468;-88
2021/06/06 04:44:22;;;;;;;3.00;2.70;;;;;;;;;;1473250;40;20399;-87
2021/06/06 04:45:24;;;;;;;5.70;2.70;;;;;;;;;;1470289;40;20556;-86
2021/06/06 04:46:26;;;;;;;7.60;3.00;;;;;;;;;;1469839;40;20412;-86
2021/06/06 04:47:28;;;;;;;6.88;2.95;;;;;;;;;;1470562;40;20410;-87
2021/06/06 04:48:42;;;;;;;4.78;3.33;;;;;;;;;;1475216;40;20558;-86
2021/06/06 04:49:44;;;;;;;6.72;3.10;;;;;;;;;;1474909;40;20397;-86
2021/06/06 04:50:47;;;;;;;7.15;3.10;;;;;;;;;;1474803;40;20424;-87
2021/06/06 04:51:49;;;;;;;5.57;2.72;;;;;;;;;;1474140;40;20431;-87
2021/06/06 04:52:51;;;;;;;4.75;2.47;;;;;;;;;;1474209;40;20419;-87
2021/06/06 04:53:53;;;;;;;4.50;2.30;;;;;;;;;;1473381;40;20435;-87
2021/06/06 04:54:55;;;;;;;5.38;3.70;;;;;;;;;;1474015;40;20439;-86
2021/06/06 04:55:58;;;;;;;3.58;2.80;;;;;;;;;;1470167;40;20507;-86
2021/06/06 04:57:00;;;;;;;5.43;2.58;;;;;;;;;;1467089;40;20399;-87
2021/06/06 04:58:03;;;;;;;4.32;2.40;;;;;;;;;;1476434;40;20645;-86
2021/06/06 04:59:05;;;;;;;3.67;2.00;;;;;;;;;;1479662;40;20414;-86
2021/06/06 05:00:10;;;;;;;3.80;2.20;;;;;;;;;;1478785;40;20419;-86
2021/06/06 05:01:13;;;;;;;2.58;2.08;;;;;;;;;;1478929;40;20430;-86
2021/06/06 05:02:17;;;;;;;2.07;1.70;;;;;;;;;;1475260;40;20466;-86
2021/06/06 05:03:20;;;;;;;8.68;2.35;;;;;;;;;;1469981;40;20454;-86
2021/06/06 05:04:22;;;;;;;3.47;1.77;;;;;;;;;;1470251;40;20503;-86
2021/06/06 05:05:23;;;;;;;3.17;1.60;;;;;;;;;;1471167;40;20425;-86
2021/06/06 05:06:25;;;;;;;3.13;1.60;;;;;;;;;;1475384;40;20404;-86
2021/06/06 05:07:28;;;;;;;3.05;1.35;;;;;;;;;;1476229;40;20420;-86
2021/06/06 05:08:29;;;;;;;2.90;1.50;;;;;;;;;;1475009;40;20451;-86
2021/06/06 05:09:31;;;;;;;2.58;1.65;;;;;;;;;;1473340;40;20486;-86
2021/06/06 05:10:36;;;;;;;3.35;1.60;;;;;;;;;;1475215;40;20475;-85
2021/06/06 05:11:37;;;;;;;3.30;2.10;;;;;;;;;;1469986;40;20521;-85
2021/06/06 05:12:39;;;;;;;4.68;1.50;;;;;;;;;;1468637;40;20784;-86
2021/06/06 05:13:41;;;;;;;3.88;1.20;;;;;;;;;;1476935;40;20407;-86
2021/06/06 05:14:42;;;;;;;3.55;1.30;;;;;;;;;;1478027;40;20850;-86
2021/06/06 05:15:46;;;;;;;4.53;1.30;;;;;;;;;;1474629;40;20936;-85
2021/06/06 05:16:47;;;;;;;4.07;1.42;;;;;;;;;;1474957;40;20959;-85
2021/06/06 05:17:51;;;;;;;2.75;1.00;;;;;;;;;;1479935;40;20817;-86
2021/06/06 05:18:54;;;;;;;2.72;1.10;;;;;;;;;;1481185;40;20437;-86
2021/06/06 05:19:56;;;;;;;2.70;0.90;;;;;;;;;;1478667;40;20400;-86
2021/06/06 05:20:59;;;;;;;3.17;1.17;;;;;;;;;;1474257;40;20401;-85
2021/06/06 05:22:02;;;;;;;4.55;0.95;;;;;;;;;;1467938;40;20419;-86
2021/06/06 05:23:04;;;;;;;2.80;1.17;;;;;;;;;;1466664;40;20411;-86
2021/06/06 05:24:06;;;;;;;3.72;0.98;;;;;;;;;;1466693;40;20817;-86
2021/06/06 05:25:09;;;;;;;4.18;1.27;;;;;;;;;;1466594;40;20482;-86
2021/06/06 05:26:11;;;;;;;3.00;1.17;;;;;;;;;;1470030;40;20531;-86
2021/06/06 05:27:16;;;;;;;3.42;1.05;;;;;;;;;;1473297;40;20822;-86
2021/06/06 05:28:24;;;;;;;4.25;1.00;;;;;;;;;;1481581;40;20504;-87
2021/06/06 05:29:26;;;;;;;2.28;0.70;;;;;;;;;;1478798;40;20826;-85
2021/06/06 05:30:31;;;;;;;3.30;0.88;;;;;;;;;;1468801;40;20974;-87
2021/06/06 05:31:33;;;;;;;1.42;0.80;;;;;;;;;;1477453;40;20557;-85
2021/06/06 05:32:35;;;;;;;2.08;0.98;;;;;;;;;;1474071;40;20856;-85
2021/06/06 05:33:37;;;;;;;2.33;0.80;;;;;;;;;;1471206;40;20421;-86
2021/06/06 05:34:39;;;;;;;2.33;1.00;;;;;;;;;;1478110;40;20443;-87
2021/06/06 05:35:41;;;;;;;3.03;1.10;;;;;;;;;;1480142;40;20572;-85
2021/06/06 05:36:43;;;;;;;0.70;0.60;;;;;;;;;;1478365;40;20404;-85
2021/06/06 05:37:45;;;;;;;2.00;0.75;;;;;;;;;;1478420;40;20786;-85
2021/06/06 05:38:46;;;;;;;2.40;0.90;;;;;;;;;;1477740;40;20416;-85
2021/06/06 05:39:49;;;;;;;2.40;0.83;;;;;;;;;;1477872;40;20622;-85
2021/06/06 05:40:51;;;;;;;1.77;0.70;;;;;;;;;;1476869;40;20869;-83
2021/06/06 05:41:53;;;;;;;2.15;1.00;;;;;;;;;;1479543;40;20414;-85
2021/06/06 05:42:55;;;;;;;2.70;0.80;;;;;;;;;;1473743;40;20415;-84
2021/06/06 05:43:58;;;;;;;1.55;0.80;;;;;;;;;;1471163;40;20418;-84
2021/06/06 05:44:59;;;;;;;2.22;0.60;;;;;;;;;;1470473;40;20416;-85
2021/06/06 05:46:01;;;;;;;2.05;0.60;;;;;;;;;;1461794;40;20420;-84
2021/06/06 05:47:05;;;;;;;2.67;0.80;;;;;;;;;;1462447;40;20435;-85
2021/06/06 05:48:08;;;;;;;1.85;0.70;;;;;;;;;;1471986;40;20425;-84
2021/06/06 05:49:09;;;;;;;1.73;0.60;;;;;;;;;;1477784;40;20419;-86
2021/06/06 05:50:14;;;;;;;2.20;0.90;;;;;;;;;;1474127;40;20602;-85
2021/06/06 05:51:16;;;;;;;2.47;0.80;;;;;;;;;;1478107;40;20400;-85
2021/06/06 05:52:18;;;;;;;1.13;0.80;;;;;;;;;;1475776;40;20429;-85
2021/06/06 05:53:20;;;;;;;2.30;0.70;;;;;;;;;;1476375;40;20414;-85
2021/06/06 05:54:21;;;;;;;2.60;0.90;;;;;;;;;;1472086;40;20418;-86
2021/06/06 05:55:23;;;;;;;3.50;1.00;;;;;;;;;;1468276;40;20408;-86
2021/06/06 05:56:30;;;;;;;2.40;0.80;;;;;;;;;;1465178;40;20394;-85
2021/06/06 05:57:32;;;;;;;2.05;0.80;;;;;;;;;;1471862;40;20465;-86
2021/06/06 05:58:33;;;;;;;1.60;1.25;;;;;;;;;;1467531;40;20927;-86
2021/06/06 05:59:35;;;;;;;1.75;0.73;;;;;;;;;;1466685;40;20408;-84
2021/06/06 06:00:40;;;;;;;3.40;0.80;;;;;;;;;;1470358;40;20484;-82
2021/06/06 06:01:41;;;;;;;3.60;0.70;;;;;;;;;;1474103;40;20566;-84
2021/06/06 06:02:43;;;;;;;2.30;0.80;;;;;;;;;;1474652;40;20415;-83
2021/06/06 06:03:45;;;;;;;1.48;0.75;;;;;;;;;;1474037;40;20770;-83
2021/06/06 06:04:47;;;;;;;1.90;0.70;;;;;;;;;;1470811;40;20683;-85
2021/06/06 06:05:48;;;;;;;1.73;0.70;;;;;;;;;;1470237;40;20421;-84
2021/06/06 06:06:50;;;;;;;1.55;0.85;;;;;;;;;;1476466;40;20633;-85
2021/06/06 06:07:52;;;;;;;2.03;0.60;;;;;;;;;;1478140;40;20418;-87
2021/06/06 06:08:54;;;;;;;3.45;1.10;;;;;;;;;;1467749;40;20565;-86
2021/06/06 06:09:56;;;;;;;4.38;0.88;;;;;;;;;;1469685;40;20977;-86
2021/06/06 06:10:59;;;;;;;1.58;0.80;;;;;;;;;;1469244;40;20417;-85
2021/06/06 06:12:00;;;;;;;1.85;0.88;;;;;;;;;;1465672;40;20443;-83
2021/06/06 06:13:02;;;;;;;1.75;0.95;;;;;;;;;;1468630;40;20417;-84
2021/06/06 06:14:04;;;;;;;1.20;0.75;;;;;;;;;;1465816;40;20470;-84
2021/06/06 06:15:07;;;;;;;1.60;0.60;;;;;;;;;;1465905;40;20408;-84
2021/06/06 06:16:12;;;;;;;1.63;0.60;;;;;;;;;;1469756;40;20477;-84
2021/06/06 06:17:14;;;;;;;1.80;0.60;;;;;;;;;;1469938;40;20412;-84
2021/06/06 06:18:17;;;;;;;2.60;0.98;;;;;;;;;;1469904;40;20437;-84
2021/06/06 06:19:19;;;;;;;3.10;1.00;;;;;;;;;;1474516;40;20400;-87
2021/06/06 06:20:22;;;;;;;2.60;0.93;;;;;;;;;;1462215;40;20855;-87
2021/06/06 06:21:26;;;;;;;0.93;0.80;;;;;;;;;;1470059;40;20422;-86
2021/06/06 06:22:28;;;;;;;2.28;0.73;;;;;;;;;;1463857;40;20432;-85
2021/06/06 06:23:29;;;;;;;2.20;0.70;;;;;;;;;;1466436;40;20540;-83
2021/06/06 06:24:31;;;;;;;0.82;0.60;;;;;;;;;;1470868;40;20787;-82
2021/06/06 06:25:33;;;;;;;1.33;0.85;;;;;;;;;;1471463;40;20413;-85
2021/06/06 06:26:34;;;;;;;2.20;0.80;;;;;;;;;;1471429;40;20744;-86
2021/06/06 06:27:36;;;;;;;1.27;0.70;;;;;;;;;;1476611;40;20389;-85
2021/06/06 06:28:38;;;;;;;2.00;0.80;;;;;;;;;;1475359;40;20425;-88